sensor_id;sensor_type;location;lat;lon;timestamp;P1;durP1;ratioP1;P2;durP2;ratioP2
82265;SDS011;71866;53.340;-6.308;2023-08-07T00:02:02;2.65;;;0.85;;
82265;SDS011;71866;53.340;-6.308;2023-08-07T00:04:30;3.55;;;1.23;;
82265;SDS011;71866;53.340;-6.308;2023-08-07T00:06:56;7.00;;;1.20;;
82265;SDS011;71866;53.340;-6.308;2023-08-07T00:09:24;3.20;;;0.90;;
82265;SDS011;71866;53.340;-6.308;2023-08-07T00:11:51;4.43;;;1.10;;
82265;SDS011;71866;53.340;-6.308;2023-08-07T00:14:19;3.17;;;1.10;;
82265;SDS011;71866;53.340;-6.308;2023-08-07T00:16:47;3.28;;;1.00;;
82265;SDS011;71866;53.340;-6.308;2023-08-07T00:19:13;2.88;;;1.05;;
82265;SDS011;71866;53.340;-6.308;2023-08-07T00:21:40;6.10;;;1.88;;
82265;SDS011;71866;53.340;-6.308;2023-08-07T00:24:07;3.03;;;1.27;;
82265;SDS011;71866;53.340;-6.308;2023-08-07T00:26:34;3.85;;;1.33;;
82265;SDS011;71866;53.340;-6.308;2023-08-07T00:29:02;3.35;;;0.80;;
82265;SDS011;71866;53.340;-6.308;2023-08-07T00:31:28;2.13;;;1.02;;
82265;SDS011;71866;53.340;-6.308;2023-08-07T00:33:59;5.45;;;1.08;;
82265;SDS011;71866;53.340;-6.308;2023-08-07T00:36:27;2.80;;;0.93;;
82265;SDS011;71866;53.340;-6.308;2023-08-07T00:38:53;5.00;;;0.70;;
82265;SDS011;71866;53.340;-6.308;2023-08-07T00:41:21;2.10;;;0.95;;
82265;SDS011;71866;53.340;-6.308;2023-08-07T00:43:48;3.28;;;1.27;;
82265;SDS011;71866;53.340;-6.308;2023-08-07T00:46:16;6.57;;;1.38;;
82265;SDS011;71866;53.340;-6.308;2023-08-07T00:48:44;3.97;;;0.85;;
82265;SDS011;71866;53.340;-6.308;2023-08-07T00:51:10;2.50;;;0.90;;
82265;SDS011;71866;53.340;-6.308;2023-08-07T00:53:38;1.83;;;0.90;;
82265;SDS011;71866;53.340;-6.308;2023-08-07T00:56:07;4.22;;;0.80;;
82265;SDS011;71866;53.340;-6.308;2023-08-07T00:58:33;3.30;;;0.80;;
82265;SDS011;71866;53.340;-6.308;2023-08-07T01:01:01;5.78;;;1.00;;
82265;SDS011;71866;53.340;-6.308;2023-08-07T01:03:29;5.28;;;1.10;;
82265;SDS011;71866;53.340;-6.308;2023-08-07T01:05:56;3.13;;;1.20;;
82265;SDS011;71866;53.340;-6.308;2023-08-07T01:08:24;1.85;;;0.80;;
82265;SDS011;71866;53.340;-6.308;2023-08-07T01:11:07;3.88;;;1.63;;
82265;SDS011;71866;53.340;-6.308;2023-08-07T01:14:06;3.05;;;1.13;;
82265;SDS011;71866;53.340;-6.308;2023-08-07T01:16:46;4.68;;;0.93;;
82265;SDS011;71866;53.340;-6.308;2023-08-07T01:19:24;5.53;;;1.17;;
82265;SDS011;71866;53.340;-6.308;2023-08-07T01:22:09;6.82;;;1.30;;
82265;SDS011;71866;53.340;-6.308;2023-08-07T01:24:37;3.90;;;0.90;;
82265;SDS011;71866;53.340;-6.308;2023-08-07T01:32:17;2.22;;;1.02;;
82265;SDS011;71866;53.340;-6.308;2023-08-07T01:34:52;1.33;;;0.70;;
82265;SDS011;71866;53.340;-6.308;2023-08-07T01:37:21;2.67;;;0.90;;
82265;SDS011;71866;53.340;-6.308;2023-08-07T01:39:50;4.50;;;0.90;;
82265;SDS011;71866;53.340;-6.308;2023-08-07T01:42:17;4.35;;;1.08;;
82265;SDS011;71866;53.340;-6.308;2023-08-07T01:44:45;2.75;;;1.00;;
82265;SDS011;71866;53.340;-6.308;2023-08-07T01:47:12;3.88;;;0.93;;
82265;SDS011;71866;53.340;-6.308;2023-08-07T01:49:39;3.28;;;1.00;;
82265;SDS011;71866;53.340;-6.308;2023-08-07T01:52:06;2.60;;;0.90;;
82265;SDS011;71866;53.340;-6.308;2023-08-07T01:54:34;2.55;;;0.93;;
82265;SDS011;71866;53.340;-6.308;2023-08-07T01:57:01;3.08;;;0.70;;
82265;SDS011;71866;53.340;-6.308;2023-08-07T01:59:29;4.28;;;1.13;;
82265;SDS011;71866;53.340;-6.308;2023-08-07T02:01:56;1.85;;;1.10;;
82265;SDS011;71866;53.340;-6.308;2023-08-07T02:04:24;5.25;;;1.20;;
82265;SDS011;71866;53.340;-6.308;2023-08-07T02:06:50;3.78;;;0.90;;
82265;SDS011;71866;53.340;-6.308;2023-08-07T02:09:17;3.60;;;1.10;;
82265;SDS011;71866;53.340;-6.308;2023-08-07T02:11:44;4.68;;;1.35;;
82265;SDS011;71866;53.340;-6.308;2023-08-07T02:14:11;4.30;;;1.52;;
82265;SDS011;71866;53.340;-6.308;2023-08-07T02:16:38;4.68;;;2.03;;
82265;SDS011;71866;53.340;-6.308;2023-08-07T02:19:05;3.05;;;0.95;;
82265;SDS011;71866;53.340;-6.308;2023-08-07T02:21:32;6.00;;;1.23;;
82265;SDS011;71866;53.340;-6.308;2023-08-07T02:24:00;4.85;;;1.23;;
82265;SDS011;71866;53.340;-6.308;2023-08-07T02:26:27;1.98;;;1.00;;
82265;SDS011;71866;53.340;-6.308;2023-08-07T02:28:55;4.57;;;1.15;;
82265;SDS011;71866;53.340;-6.308;2023-08-07T02:31:21;2.78;;;1.00;;
82265;SDS011;71866;53.340;-6.308;2023-08-07T02:33:49;3.35;;;1.45;;
82265;SDS011;71866;53.340;-6.308;2023-08-07T02:36:16;2.33;;;1.15;;
82265;SDS011;71866;53.340;-6.308;2023-08-07T02:38:42;3.35;;;1.25;;
82265;SDS011;71866;53.340;-6.308;2023-08-07T02:41:10;4.88;;;1.30;;
82265;SDS011;71866;53.340;-6.308;2023-08-07T02:43:36;6.35;;;1.45;;
82265;SDS011;71866;53.340;-6.308;2023-08-07T02:46:03;2.70;;;1.30;;
82265;SDS011;71866;53.340;-6.308;2023-08-07T02:48:31;5.30;;;1.60;;
82265;SDS011;71866;53.340;-6.308;2023-08-07T02:50:57;2.50;;;1.10;;
82265;SDS011;71866;53.340;-6.308;2023-08-07T02:53:24;5.30;;;1.67;;
82265;SDS011;71866;53.340;-6.308;2023-08-07T02:55:51;3.90;;;1.00;;
82265;SDS011;71866;53.340;-6.308;2023-08-07T02:58:18;7.75;;;1.30;;
82265;SDS011;71866;53.340;-6.308;2023-08-07T03:00:47;5.18;;;1.80;;
82265;SDS011;71866;53.340;-6.308;2023-08-07T03:03:13;3.60;;;1.27;;
82265;SDS011;71866;53.340;-6.308;2023-08-07T03:05:48;5.70;;;1.40;;
82265;SDS011;71866;53.340;-6.308;2023-08-07T03:08:18;2.58;;;1.15;;
82265;SDS011;71866;53.340;-6.308;2023-08-07T03:10:55;3.03;;;1.23;;
82265;SDS011;71866;53.340;-6.308;2023-08-07T03:13:25;2.45;;;1.00;;
82265;SDS011;71866;53.340;-6.308;2023-08-07T03:16:02;4.25;;;0.82;;
82265;SDS011;71866;53.340;-6.308;2023-08-07T03:18:31;4.65;;;1.17;;
82265;SDS011;71866;53.340;-6.308;2023-08-07T03:20:58;6.97;;;1.00;;
82265;SDS011;71866;53.340;-6.308;2023-08-07T03:23:25;4.65;;;1.10;;
82265;SDS011;71866;53.340;-6.308;2023-08-07T03:26:08;2.35;;;1.25;;
82265;SDS011;71866;53.340;-6.308;2023-08-07T03:28:39;5.82;;;1.25;;
82265;SDS011;71866;53.340;-6.308;2023-08-07T03:31:06;3.92;;;1.35;;
82265;SDS011;71866;53.340;-6.308;2023-08-07T03:33:33;3.42;;;1.10;;
82265;SDS011;71866;53.340;-6.308;2023-08-07T03:36:01;6.10;;;1.27;;
82265;SDS011;71866;53.340;-6.308;2023-08-07T03:38:27;3.25;;;1.10;;
82265;SDS011;71866;53.340;-6.308;2023-08-07T03:40:55;5.55;;;0.93;;
82265;SDS011;71866;53.340;-6.308;2023-08-07T03:43:22;2.45;;;0.73;;
82265;SDS011;71866;53.340;-6.308;2023-08-07T03:45:53;3.60;;;1.00;;
82265;SDS011;71866;53.340;-6.308;2023-08-07T03:48:26;3.33;;;0.90;;
82265;SDS011;71866;53.340;-6.308;2023-08-07T03:50:53;4.90;;;0.90;;
82265;SDS011;71866;53.340;-6.308;2023-08-07T03:53:28;2.40;;;0.90;;
82265;SDS011;71866;53.340;-6.308;2023-08-07T03:55:55;1.58;;;0.70;;
82265;SDS011;71866;53.340;-6.308;2023-08-07T03:58:22;2.92;;;0.60;;
82265;SDS011;71866;53.340;-6.308;2023-08-07T04:00:50;2.30;;;0.90;;
82265;SDS011;71866;53.340;-6.308;2023-08-07T04:03:19;2.13;;;0.73;;
82265;SDS011;71866;53.340;-6.308;2023-08-07T04:05:46;1.05;;;0.65;;
82265;SDS011;71866;53.340;-6.308;2023-08-07T04:08:14;4.75;;;1.00;;
82265;SDS011;71866;53.340;-6.308;2023-08-07T04:10:41;2.88;;;1.23;;
82265;SDS011;71866;53.340;-6.308;2023-08-07T04:13:07;3.88;;;0.90;;
82265;SDS011;71866;53.340;-6.308;2023-08-07T04:15:35;2.17;;;0.65;;
82265;SDS011;71866;53.340;-6.308;2023-08-07T04:18:02;2.60;;;0.90;;
82265;SDS011;71866;53.340;-6.308;2023-08-07T04:20:29;3.17;;;0.88;;
82265;SDS011;71866;53.340;-6.308;2023-08-07T04:22:56;1.98;;;0.75;;
82265;SDS011;71866;53.340;-6.308;2023-08-07T04:25:23;2.35;;;0.80;;
82265;SDS011;71866;53.340;-6.308;2023-08-07T04:27:50;3.00;;;0.80;;
82265;SDS011;71866;53.340;-6.308;2023-08-07T04:30:17;2.28;;;0.80;;
82265;SDS011;71866;53.340;-6.308;2023-08-07T04:32:44;3.13;;;0.82;;
82265;SDS011;71866;53.340;-6.308;2023-08-07T04:35:11;2.97;;;0.93;;
82265;SDS011;71866;53.340;-6.308;2023-08-07T04:37:38;2.25;;;0.70;;
82265;SDS011;71866;53.340;-6.308;2023-08-07T04:40:07;3.40;;;0.90;;
82265;SDS011;71866;53.340;-6.308;2023-08-07T04:42:34;4.95;;;0.65;;
82265;SDS011;71866;53.340;-6.308;2023-08-07T04:45:01;3.83;;;0.80;;
82265;SDS011;71866;53.340;-6.308;2023-08-07T04:47:28;3.05;;;0.93;;
82265;SDS011;71866;53.340;-6.308;2023-08-07T04:49:56;3.78;;;0.75;;
82265;SDS011;71866;53.340;-6.308;2023-08-07T04:52:22;2.55;;;0.80;;
82265;SDS011;71866;53.340;-6.308;2023-08-07T04:54:52;2.03;;;0.68;;
82265;SDS011;71866;53.340;-6.308;2023-08-07T04:57:18;3.95;;;0.68;;
82265;SDS011;71866;53.340;-6.308;2023-08-07T04:59:45;3.17;;;0.80;;
82265;SDS011;71866;53.340;-6.308;2023-08-07T05:02:13;2.25;;;0.80;;
82265;SDS011;71866;53.340;-6.308;2023-08-07T05:04:39;2.55;;;0.57;;
82265;SDS011;71866;53.340;-6.308;2023-08-07T05:07:07;1.95;;;0.88;;
82265;SDS011;71866;53.340;-6.308;2023-08-07T05:09:33;1.40;;;0.70;;
82265;SDS011;71866;53.340;-6.308;2023-08-07T05:12:01;3.85;;;0.93;;
82265;SDS011;71866;53.340;-6.308;2023-08-07T05:14:31;0.90;;;0.60;;
82265;SDS011;71866;53.340;-6.308;2023-08-07T05:16:58;1.48;;;0.70;;
82265;SDS011;71866;53.340;-6.308;2023-08-07T05:19:25;2.13;;;0.70;;
82265;SDS011;71866;53.340;-6.308;2023-08-07T05:21:52;2.13;;;0.80;;
82265;SDS011;71866;53.340;-6.308;2023-08-07T05:24:20;1.08;;;0.50;;
82265;SDS011;71866;53.340;-6.308;2023-08-07T05:26:46;3.58;;;0.63;;
82265;SDS011;71866;53.340;-6.308;2023-08-07T05:29:14;1.67;;;0.47;;
82265;SDS011;71866;53.340;-6.308;2023-08-07T05:31:41;2.67;;;0.73;;
82265;SDS011;71866;53.340;-6.308;2023-08-07T05:34:07;2.65;;;0.65;;
82265;SDS011;71866;53.340;-6.308;2023-08-07T05:36:35;3.15;;;0.70;;
82265;SDS011;71866;53.340;-6.308;2023-08-07T05:39:01;1.52;;;0.65;;
82265;SDS011;71866;53.340;-6.308;2023-08-07T05:41:32;0.75;;;0.45;;
82265;SDS011;71866;53.340;-6.308;2023-08-07T05:43:59;3.50;;;0.70;;
82265;SDS011;71866;53.340;-6.308;2023-08-07T05:46:26;0.98;;;0.43;;
82265;SDS011;71866;53.340;-6.308;2023-08-07T05:48:53;4.00;;;0.98;;
82265;SDS011;71866;53.340;-6.308;2023-08-07T05:51:20;1.50;;;0.50;;
82265;SDS011;71866;53.340;-6.308;2023-08-07T05:53:47;2.47;;;0.65;;
82265;SDS011;71866;53.340;-6.308;2023-08-07T05:56:15;2.58;;;0.65;;
82265;SDS011;71866;53.340;-6.308;2023-08-07T05:58:42;1.45;;;0.60;;
82265;SDS011;71866;53.340;-6.308;2023-08-07T06:01:08;2.40;;;0.63;;
82265;SDS011;71866;53.340;-6.308;2023-08-07T06:03:36;3.53;;;0.70;;
82265;SDS011;71866;53.340;-6.308;2023-08-07T06:06:04;2.85;;;0.65;;
82265;SDS011;71866;53.340;-6.308;2023-08-07T06:08:31;5.38;;;0.85;;
82265;SDS011;71866;53.340;-6.308;2023-08-07T06:10:58;1.20;;;0.75;;
82265;SDS011;71866;53.340;-6.308;2023-08-07T06:13:26;2.95;;;0.60;;
82265;SDS011;71866;53.340;-6.308;2023-08-07T06:16:01;1.17;;;0.50;;
82265;SDS011;71866;53.340;-6.308;2023-08-07T06:18:29;0.70;;;0.60;;
82265;SDS011;71866;53.340;-6.308;2023-08-07T06:20:56;5.20;;;0.73;;
82265;SDS011;71866;53.340;-6.308;2023-08-07T06:23:23;4.57;;;1.05;;
82265;SDS011;71866;53.340;-6.308;2023-08-07T06:25:50;2.70;;;0.90;;
82265;SDS011;71866;53.340;-6.308;2023-08-07T06:28:22;1.65;;;0.60;;
82265;SDS011;71866;53.340;-6.308;2023-08-07T06:30:50;2.60;;;0.60;;
82265;SDS011;71866;53.340;-6.308;2023-08-07T06:33:17;1.25;;;0.70;;
82265;SDS011;71866;53.340;-6.308;2023-08-07T06:35:44;0.90;;;0.60;;
82265;SDS011;71866;53.340;-6.308;2023-08-07T06:38:11;2.45;;;0.73;;
82265;SDS011;71866;53.340;-6.308;2023-08-07T06:40:37;2.67;;;1.00;;
82265;SDS011;71866;53.340;-6.308;2023-08-07T06:43:05;8.82;;;1.08;;
82265;SDS011;71866;53.340;-6.308;2023-08-07T06:45:32;3.47;;;0.73;;
82265;SDS011;71866;53.340;-6.308;2023-08-07T06:47:59;1.67;;;0.73;;
82265;SDS011;71866;53.340;-6.308;2023-08-07T06:50:27;3.03;;;0.77;;
82265;SDS011;71866;53.340;-6.308;2023-08-07T06:52:53;1.60;;;0.70;;
82265;SDS011;71866;53.340;-6.308;2023-08-07T06:55:20;1.92;;;0.65;;
82265;SDS011;71866;53.340;-6.308;2023-08-07T06:57:48;2.17;;;0.70;;
82265;SDS011;71866;53.340;-6.308;2023-08-07T07:00:15;3.58;;;0.90;;
82265;SDS011;71866;53.340;-6.308;2023-08-07T07:02:43;2.60;;;0.60;;
82265;SDS011;71866;53.340;-6.308;2023-08-07T07:05:09;1.77;;;0.60;;
82265;SDS011;71866;53.340;-6.308;2023-08-07T07:07:36;2.30;;;0.50;;
82265;SDS011;71866;53.340;-6.308;2023-08-07T07:10:03;2.45;;;0.63;;
82265;SDS011;71866;53.340;-6.308;2023-08-07T07:12:30;4.35;;;0.82;;
82265;SDS011;71866;53.340;-6.308;2023-08-07T07:14:59;1.45;;;0.75;;
82265;SDS011;71866;53.340;-6.308;2023-08-07T07:17:25;1.15;;;0.63;;
82265;SDS011;71866;53.340;-6.308;2023-08-07T07:19:53;3.08;;;0.60;;
82265;SDS011;71866;53.340;-6.308;2023-08-07T07:22:20;1.27;;;0.70;;
82265;SDS011;71866;53.340;-6.308;2023-08-07T07:24:46;6.65;;;1.05;;
82265;SDS011;71866;53.340;-6.308;2023-08-07T07:27:14;1.88;;;0.45;;
82265;SDS011;71866;53.340;-6.308;2023-08-07T07:29:40;2.33;;;0.63;;
82265;SDS011;71866;53.340;-6.308;2023-08-07T07:32:08;1.42;;;0.60;;
82265;SDS011;71866;53.340;-6.308;2023-08-07T07:34:35;1.23;;;0.47;;
82265;SDS011;71866;53.340;-6.308;2023-08-07T07:37:02;1.50;;;0.43;;
82265;SDS011;71866;53.340;-6.308;2023-08-07T07:39:29;1.77;;;0.57;;
82265;SDS011;71866;53.340;-6.308;2023-08-07T07:41:56;2.17;;;0.73;;
82265;SDS011;71866;53.340;-6.308;2023-08-07T07:44:24;1.80;;;0.60;;
82265;SDS011;71866;53.340;-6.308;2023-08-07T07:46:51;1.85;;;0.52;;
82265;SDS011;71866;53.340;-6.308;2023-08-07T07:49:20;1.50;;;0.50;;
82265;SDS011;71866;53.340;-6.308;2023-08-07T07:51:46;0.85;;;0.30;;
82265;SDS011;71866;53.340;-6.308;2023-08-07T07:54:14;2.20;;;0.60;;
82265;SDS011;71866;53.340;-6.308;2023-08-07T07:56:42;1.08;;;0.60;;
82265;SDS011;71866;53.340;-6.308;2023-08-07T07:59:11;2.25;;;0.80;;
82265;SDS011;71866;53.340;-6.308;2023-08-07T08:01:38;1.83;;;0.57;;
82265;SDS011;71866;53.340;-6.308;2023-08-07T08:04:05;0.98;;;0.50;;
82265;SDS011;71866;53.340;-6.308;2023-08-07T08:06:34;2.10;;;0.65;;
82265;SDS011;71866;53.340;-6.308;2023-08-07T08:09:00;3.80;;;0.60;;
82265;SDS011;71866;53.340;-6.308;2023-08-07T08:11:28;0.60;;;0.40;;
82265;SDS011;71866;53.340;-6.308;2023-08-07T08:13:56;1.55;;;0.70;;
82265;SDS011;71866;53.340;-6.308;2023-08-07T08:16:24;1.02;;;0.50;;
82265;SDS011;71866;53.340;-6.308;2023-08-07T08:18:50;2.90;;;0.50;;
82265;SDS011;71866;53.340;-6.308;2023-08-07T08:21:19;2.85;;;0.50;;
82265;SDS011;71866;53.340;-6.308;2023-08-07T08:23:45;2.35;;;0.80;;
82265;SDS011;71866;53.340;-6.308;2023-08-07T08:26:13;1.95;;;0.50;;
82265;SDS011;71866;53.340;-6.308;2023-08-07T08:28:40;1.45;;;0.43;;
82265;SDS011;71866;53.340;-6.308;2023-08-07T08:31:06;1.55;;;0.55;;
82265;SDS011;71866;53.340;-6.308;2023-08-07T08:33:34;1.20;;;0.65;;
82265;SDS011;71866;53.340;-6.308;2023-08-07T08:36:01;1.17;;;0.60;;
82265;SDS011;71866;53.340;-6.308;2023-08-07T08:38:28;1.65;;;0.65;;
82265;SDS011;71866;53.340;-6.308;2023-08-07T08:40:55;1.83;;;0.70;;
82265;SDS011;71866;53.340;-6.308;2023-08-07T08:43:23;1.27;;;0.50;;
82265;SDS011;71866;53.340;-6.308;2023-08-07T08:45:51;2.28;;;0.60;;
82265;SDS011;71866;53.340;-6.308;2023-08-07T08:48:20;1.52;;;0.40;;
82265;SDS011;71866;53.340;-6.308;2023-08-07T08:50:49;1.00;;;0.45;;
82265;SDS011;71866;53.340;-6.308;2023-08-07T08:53:16;0.70;;;0.35;;
82265;SDS011;71866;53.340;-6.308;2023-08-07T08:55:45;0.65;;;0.40;;
82265;SDS011;71866;53.340;-6.308;2023-08-07T08:58:12;1.08;;;0.40;;
82265;SDS011;71866;53.340;-6.308;2023-08-07T09:00:42;0.82;;;0.50;;
82265;SDS011;71866;53.340;-6.308;2023-08-07T09:03:09;0.82;;;0.40;;
82265;SDS011;71866;53.340;-6.308;2023-08-07T09:05:37;2.53;;;0.60;;
82265;SDS011;71866;53.340;-6.308;2023-08-07T09:08:04;2.13;;;0.88;;
82265;SDS011;71866;53.340;-6.308;2023-08-07T09:10:32;1.55;;;0.82;;
82265;SDS011;71866;53.340;-6.308;2023-08-07T09:15:29;1.42;;;0.38;;
82265;SDS011;71866;53.340;-6.308;2023-08-07T09:17:59;2.92;;;0.50;;
82265;SDS011;71866;53.340;-6.308;2023-08-07T09:20:26;1.30;;;0.43;;
82265;SDS011;71866;53.340;-6.308;2023-08-07T09:22:52;3.08;;;0.70;;
82265;SDS011;71866;53.340;-6.308;2023-08-07T09:25:27;3.08;;;0.40;;
82265;SDS011;71866;53.340;-6.308;2023-08-07T09:27:55;1.13;;;0.45;;
82265;SDS011;71866;53.340;-6.308;2023-08-07T09:30:26;0.40;;;0.40;;
82265;SDS011;71866;53.340;-6.308;2023-08-07T09:32:58;0.82;;;0.47;;
82265;SDS011;71866;53.340;-6.308;2023-08-07T09:35:27;0.50;;;0.40;;
82265;SDS011;71866;53.340;-6.308;2023-08-07T09:37:56;0.82;;;0.30;;
82265;SDS011;71866;53.340;-6.308;2023-08-07T09:40:23;2.75;;;0.50;;
82265;SDS011;71866;53.340;-6.308;2023-08-07T09:42:52;1.55;;;0.50;;
82265;SDS011;71866;53.340;-6.308;2023-08-07T09:47:59;0.50;;;0.20;;
82265;SDS011;71866;53.340;-6.308;2023-08-07T09:50:27;0.95;;;0.93;;
82265;SDS011;71866;53.340;-6.308;2023-08-07T09:52:56;0.50;;;0.25;;
82265;SDS011;71866;53.340;-6.308;2023-08-07T09:55:23;1.13;;;0.30;;
82265;SDS011;71866;53.340;-6.308;2023-08-07T09:57:51;1.40;;;0.57;;
82265;SDS011;71866;53.340;-6.308;2023-08-07T10:00:18;0.63;;;0.50;;
82265;SDS011;71866;53.340;-6.308;2023-08-07T10:02:47;1.13;;;0.30;;
82265;SDS011;71866;53.340;-6.308;2023-08-07T10:05:16;0.57;;;0.20;;
82265;SDS011;71866;53.340;-6.308;2023-08-07T10:07:43;0.80;;;0.30;;
82265;SDS011;71866;53.340;-6.308;2023-08-07T10:10:10;1.48;;;0.50;;
82265;SDS011;71866;53.340;-6.308;2023-08-07T10:12:38;0.40;;;0.25;;
82265;SDS011;71866;53.340;-6.308;2023-08-07T10:15:05;2.15;;;0.30;;
82265;SDS011;71866;53.340;-6.308;2023-08-07T10:17:32;1.50;;;0.50;;
82265;SDS011;71866;53.340;-6.308;2023-08-07T10:20:00;2.05;;;0.68;;
82265;SDS011;71866;53.340;-6.308;2023-08-07T10:22:29;0.30;;;0.20;;
82265;SDS011;71866;53.340;-6.308;2023-08-07T10:24:59;1.00;;;0.40;;
82265;SDS011;71866;53.340;-6.308;2023-08-07T10:27:30;0.95;;;0.30;;
82265;SDS011;71866;53.340;-6.308;2023-08-07T10:30:02;0.55;;;0.40;;
82265;SDS011;71866;53.340;-6.308;2023-08-07T10:32:32;1.30;;;0.20;;
82265;SDS011;71866;53.340;-6.308;2023-08-07T10:35:04;2.45;;;0.30;;
82265;SDS011;71866;53.340;-6.308;2023-08-07T10:40:05;1.98;;;0.32;;
82265;SDS011;71866;53.340;-6.308;2023-08-07T10:42:52;1.20;;;0.20;;
82265;SDS011;71866;53.340;-6.308;2023-08-07T10:45:27;1.63;;;0.30;;
82265;SDS011;71866;53.340;-6.308;2023-08-07T10:48:01;1.17;;;0.57;;
82265;SDS011;71866;53.340;-6.308;2023-08-07T10:50:32;0.75;;;0.40;;
82265;SDS011;71866;53.340;-6.308;2023-08-07T10:53:01;0.60;;;0.30;;
82265;SDS011;71866;53.340;-6.308;2023-08-07T10:55:48;0.70;;;0.20;;
82265;SDS011;71866;53.340;-6.308;2023-08-07T10:58:21;1.75;;;0.50;;
82265;SDS011;71866;53.340;-6.308;2023-08-07T11:03:53;1.30;;;0.30;;
82265;SDS011;71866;53.340;-6.308;2023-08-07T11:06:23;1.80;;;0.68;;
82265;SDS011;71866;53.340;-6.308;2023-08-07T11:08:55;2.17;;;0.40;;
82265;SDS011;71866;53.340;-6.308;2023-08-07T11:11:22;1.52;;;0.30;;
82265;SDS011;71866;53.340;-6.308;2023-08-07T11:13:50;0.75;;;0.35;;
82265;SDS011;71866;53.340;-6.308;2023-08-07T11:16:18;2.03;;;0.52;;
82265;SDS011;71866;53.340;-6.308;2023-08-07T11:18:45;0.95;;;0.40;;
82265;SDS011;71866;53.340;-6.308;2023-08-07T11:21:13;1.25;;;0.60;;
82265;SDS011;71866;53.340;-6.308;2023-08-07T11:23:40;1.58;;;0.60;;
82265;SDS011;71866;53.340;-6.308;2023-08-07T11:28:35;0.70;;;0.32;;
82265;SDS011;71866;53.340;-6.308;2023-08-07T11:31:02;0.40;;;0.35;;
82265;SDS011;71866;53.340;-6.308;2023-08-07T11:33:30;0.50;;;0.50;;
82265;SDS011;71866;53.340;-6.308;2023-08-07T11:35:57;1.65;;;0.40;;
82265;SDS011;71866;53.340;-6.308;2023-08-07T11:38:36;1.30;;;0.40;;
82265;SDS011;71866;53.340;-6.308;2023-08-07T11:41:06;0.82;;;0.32;;
82265;SDS011;71866;53.340;-6.308;2023-08-07T11:46:01;0.82;;;0.35;;
82265;SDS011;71866;53.340;-6.308;2023-08-07T11:48:30;1.00;;;0.30;;
82265;SDS011;71866;53.340;-6.308;2023-08-07T11:50:59;0.38;;;0.38;;
82265;SDS011;71866;53.340;-6.308;2023-08-07T11:53:27;0.88;;;0.80;;
82265;SDS011;71866;53.340;-6.308;2023-08-07T11:56:06;0.65;;;0.40;;
82265;SDS011;71866;53.340;-6.308;2023-08-07T11:58:35;1.50;;;0.38;;
82265;SDS011;71866;53.340;-6.308;2023-08-07T12:01:05;0.55;;;0.40;;
82265;SDS011;71866;53.340;-6.308;2023-08-07T12:03:33;0.57;;;0.40;;
82265;SDS011;71866;53.340;-6.308;2023-08-07T12:06:04;2.05;;;0.50;;
82265;SDS011;71866;53.340;-6.308;2023-08-07T12:08:39;0.50;;;0.35;;
82265;SDS011;71866;53.340;-6.308;2023-08-07T12:11:10;0.43;;;0.40;;
82265;SDS011;71866;53.340;-6.308;2023-08-07T12:13:42;1.08;;;0.40;;
82265;SDS011;71866;53.340;-6.308;2023-08-07T12:16:10;1.42;;;0.30;;
82265;SDS011;71866;53.340;-6.308;2023-08-07T12:18:38;1.10;;;0.40;;
82265;SDS011;71866;53.340;-6.308;2023-08-07T12:21:06;2.20;;;0.55;;
82265;SDS011;71866;53.340;-6.308;2023-08-07T12:23:34;0.70;;;0.50;;
82265;SDS011;71866;53.340;-6.308;2023-08-07T12:26:03;1.63;;;0.40;;
82265;SDS011;71866;53.340;-6.308;2023-08-07T12:28:30;0.40;;;0.40;;
82265;SDS011;71866;53.340;-6.308;2023-08-07T12:30:58;0.95;;;0.65;;
82265;SDS011;71866;53.340;-6.308;2023-08-07T12:33:25;1.65;;;0.40;;
82265;SDS011;71866;53.340;-6.308;2023-08-07T12:35:52;1.42;;;0.50;;
82265;SDS011;71866;53.340;-6.308;2023-08-07T12:38:19;0.93;;;0.50;;
82265;SDS011;71866;53.340;-6.308;2023-08-07T12:40:46;1.08;;;0.40;;
82265;SDS011;71866;53.340;-6.308;2023-08-07T12:43:13;0.60;;;0.40;;
82265;SDS011;71866;53.340;-6.308;2023-08-07T12:45:40;0.57;;;0.40;;
82265;SDS011;71866;53.340;-6.308;2023-08-07T12:48:10;1.83;;;0.50;;
82265;SDS011;71866;53.340;-6.308;2023-08-07T12:50:38;0.55;;;0.40;;
82265;SDS011;71866;53.340;-6.308;2023-08-07T12:53:06;0.73;;;0.30;;
82265;SDS011;71866;53.340;-6.308;2023-08-07T12:55:33;0.70;;;0.30;;
82265;SDS011;71866;53.340;-6.308;2023-08-07T12:58:00;1.65;;;0.40;;
82265;SDS011;71866;53.340;-6.308;2023-08-07T13:00:27;1.52;;;0.40;;
82265;SDS011;71866;53.340;-6.308;2023-08-07T13:02:54;0.55;;;0.30;;
82265;SDS011;71866;53.340;-6.308;2023-08-07T13:05:21;0.52;;;0.43;;
82265;SDS011;71866;53.340;-6.308;2023-08-07T13:07:48;0.30;;;0.30;;
82265;SDS011;71866;53.340;-6.308;2023-08-07T13:10:16;0.57;;;0.47;;
82265;SDS011;71866;53.340;-6.308;2023-08-07T13:12:44;0.70;;;0.30;;
82265;SDS011;71866;53.340;-6.308;2023-08-07T13:15:14;0.40;;;0.40;;
82265;SDS011;71866;53.340;-6.308;2023-08-07T13:17:43;1.33;;;0.50;;
82265;SDS011;71866;53.340;-6.308;2023-08-07T13:20:11;3.17;;;0.50;;
82265;SDS011;71866;53.340;-6.308;2023-08-07T13:22:41;0.43;;;0.43;;
82265;SDS011;71866;53.340;-6.308;2023-08-07T13:27:41;0.50;;;0.30;;
82265;SDS011;71866;53.340;-6.308;2023-08-07T13:30:07;1.13;;;0.70;;
82265;SDS011;71866;53.340;-6.308;2023-08-07T13:32:36;1.58;;;0.50;;
82265;SDS011;71866;53.340;-6.308;2023-08-07T13:35:03;0.43;;;0.43;;
82265;SDS011;71866;53.340;-6.308;2023-08-07T13:37:31;1.25;;;0.70;;
82265;SDS011;71866;53.340;-6.308;2023-08-07T13:39:58;1.30;;;0.40;;
82265;SDS011;71866;53.340;-6.308;2023-08-07T13:42:24;2.13;;;0.60;;
82265;SDS011;71866;53.340;-6.308;2023-08-07T13:44:52;1.52;;;0.60;;
82265;SDS011;71866;53.340;-6.308;2023-08-07T13:47:21;1.48;;;0.40;;
82265;SDS011;71866;53.340;-6.308;2023-08-07T13:49:47;1.70;;;0.60;;
82265;SDS011;71866;53.340;-6.308;2023-08-07T13:52:14;0.70;;;0.50;;
82265;SDS011;71866;53.340;-6.308;2023-08-07T13:54:42;4.78;;;0.63;;
82265;SDS011;71866;53.340;-6.308;2023-08-07T13:57:09;0.90;;;0.40;;
82265;SDS011;71866;53.340;-6.308;2023-08-07T13:59:35;1.13;;;0.50;;
82265;SDS011;71866;53.340;-6.308;2023-08-07T14:02:03;0.60;;;0.60;;
82265;SDS011;71866;53.340;-6.308;2023-08-07T14:04:30;1.17;;;0.50;;
82265;SDS011;71866;53.340;-6.308;2023-08-07T14:06:57;2.22;;;0.55;;
82265;SDS011;71866;53.340;-6.308;2023-08-07T14:09:25;0.90;;;0.50;;
82265;SDS011;71866;53.340;-6.308;2023-08-07T14:11:52;1.70;;;0.52;;
82265;SDS011;71866;53.340;-6.308;2023-08-07T14:14:20;0.73;;;0.60;;
82265;SDS011;71866;53.340;-6.308;2023-08-07T14:16:47;1.02;;;0.50;;
82265;SDS011;71866;53.340;-6.308;2023-08-07T14:19:14;1.38;;;0.70;;
82265;SDS011;71866;53.340;-6.308;2023-08-07T14:21:41;4.25;;;0.70;;
82265;SDS011;71866;53.340;-6.308;2023-08-07T14:24:08;2.42;;;0.70;;
82265;SDS011;71866;53.340;-6.308;2023-08-07T14:26:35;2.80;;;0.90;;
82265;SDS011;71866;53.340;-6.308;2023-08-07T14:29:02;1.92;;;0.60;;
82265;SDS011;71866;53.340;-6.308;2023-08-07T14:31:29;1.02;;;0.70;;
82265;SDS011;71866;53.340;-6.308;2023-08-07T14:33:56;1.58;;;0.60;;
82265;SDS011;71866;53.340;-6.308;2023-08-07T14:38:51;0.50;;;0.50;;
82265;SDS011;71866;53.340;-6.308;2023-08-07T14:41:18;6.82;;;1.25;;
82265;SDS011;71866;53.340;-6.308;2023-08-07T14:43:46;1.90;;;0.73;;
82265;SDS011;71866;53.340;-6.308;2023-08-07T14:46:13;1.10;;;0.80;;
82265;SDS011;71866;53.340;-6.308;2023-08-07T14:48:43;2.42;;;0.73;;
82265;SDS011;71866;53.340;-6.308;2023-08-07T14:51:10;1.67;;;0.57;;
82265;SDS011;71866;53.340;-6.308;2023-08-07T14:53:37;1.10;;;0.80;;
82265;SDS011;71866;53.340;-6.308;2023-08-07T14:56:04;0.55;;;0.50;;
82265;SDS011;71866;53.340;-6.308;2023-08-07T14:58:31;1.05;;;0.60;;
82265;SDS011;71866;53.340;-6.308;2023-08-07T15:00:58;1.65;;;0.70;;
82265;SDS011;71866;53.340;-6.308;2023-08-07T15:03:25;1.30;;;0.60;;
82265;SDS011;71866;53.340;-6.308;2023-08-07T15:05:52;1.48;;;0.50;;